MV Nord Discovery — 3EGP — position and weather

sailwx.info

Track history (hours):
 
Tides and Currents Weather Stations Pressure Air Temp Water Temp Dewpoint Dewpoint Depression Visibility Wind Speed Wind Dir Waves Ship Positions

MV Nord Discovery

Last reported at 2014-Oct-17 01:09 UTC. Time now 2014-Oct-21 20:05 UTC.
Position N 30°60' E 122°45'.

Length 183 m; draft 6.6 m.

Type: Cargo ship. MMSI: 354855000.

Date/timePositionNaut miles runAvg speedWind from/ knotsBaromVisibWave heightAir tempDewpointWater temp
2014-Oct-17 01:09N 30°60' E 122°45'812.3
2014-Oct-17 00:31N 30°59' E 122°36'1313.4
2014-Oct-16 23:33N 31°01' E 122°21'2811.8
2014-Oct-16 21:10N 31°11' E 121°50'813.2
2014-Oct-16 20:32N 31°17' E 121°44'1211.6
2014-Oct-16 19:33N 31°24' E 121°33'10 9.5
2014-Oct-16 18:33N 31°30' E 121°24'1312.7
2014-Oct-16 17:33N 31°39' E 121°14'1414.1
2014-Oct-16 16:32N 31°47' E 120°60'1111.7
2014-Oct-16 15:34N 31°56' E 120°52'1212.1
2014-Oct-16 14:34N 31°60' E 120°38'1111.2
2014-Oct-16 13:33N 32°03' E 120°26'1212.1
2014-Oct-16 12:34N 31°56' E 120°14'1212.1
2014-Oct-16 11:33N 31°58' E 120°00'0 0.2
2014-Oct-16 10:32N 31°58' E 120°00'0 0.0
2014-Oct-16 09:32N 31°58' E 120°00'0 0.0
2014-Oct-16 08:32N 31°58' E 120°00'0 0.0
2014-Oct-16 07:32N 31°58' E 120°00'0 0.0
2014-Oct-16 06:29N 31°58' E 120°00'0 0.0
2014-Oct-16 05:32N 31°58' E 120°00'0 0.0
2014-Oct-16 04:32N 31°58' E 120°00'0 0.0
2014-Oct-16 03:29N 31°58' E 120°00'0 0.0
2014-Oct-16 02:32N 31°58' E 120°00'0 0.0
2014-Oct-16 01:29N 31°58' E 120°00'0 0.0
2014-Oct-16 00:29N 31°58' E 120°00'0 0.0
2014-Oct-15 23:29N 31°58' E 120°00'0 0.0
2014-Oct-15 22:32N 31°58' E 120°00'0 0.0
2014-Oct-15 21:32N 31°58' E 120°00'0 0.0
2014-Oct-15 20:26N 31°58' E 120°00'0 0.0
2014-Oct-15 19:32N 31°58' E 120°00'0 0.0
2014-Oct-15 18:29N 31°58' E 120°00'0 0.0
2014-Oct-15 17:29N 31°58' E 120°00'0 0.0
2014-Oct-15 16:32N 31°58' E 120°00'0 0.0
2014-Oct-15 15:23N 31°58' E 120°00'0 0.1
2014-Oct-15 14:29N 31°58' E 120°00'0 0.0
2014-Oct-15 13:32N 31°58' E 120°00'0 0.0
2014-Oct-15 12:32N 31°58' E 120°00'0 0.0
2014-Oct-15 11:32N 31°58' E 120°00'0 0.0
2014-Oct-15 10:32N 31°58' E 120°00'0 0.0
2014-Oct-15 09:26N 31°58' E 120°00'0 0.0
2014-Oct-15 08:32N 31°58' E 120°00'0 0.0
2014-Oct-15 07:20N 31°58' E 120°00'0 0.0
2014-Oct-15 06:32N 31°58' E 120°00'0 0.0
2014-Oct-15 05:32N 31°58' E 120°00'0 0.0
2014-Oct-15 04:29N 31°58' E 120°00'0 0.0
2014-Oct-15 03:32N 31°58' E 120°00'0 0.2
2014-Oct-15 02:33N 31°58' E 120°00'9 9.3
2014-Oct-15 01:33N 31°56' E 120°11'9 9.4
2014-Oct-15 00:33N 31°58' E 120°22'6 6.0
2014-Oct-14 23:33N 32°02' E 120°27'10 9.8
2014-Oct-14 22:33N 31°60' E 120°38'1110.5
2014-Oct-14 21:33N 31°59' E 120°51'1312.5
2014-Oct-14 20:33N 31°47' E 120°57'1712.4
2014-Oct-14 19:13N 31°39' E 121°14'5 7.8
2014-Oct-14 18:33N 31°36' E 121°19'1 0.1
2014-Oct-14 11:28N 31°35' E 121°19'8 8.6
2014-Oct-14 10:33N 31°30' E 121°26'9 8.7
2014-Oct-14 09:33N 31°24' E 121°33'9 9.2
2014-Oct-14 08:33N 31°20' E 121°43'  
2014-Oct-12 00:05N 30°47' E 123°13'70 6.0
2014-Oct-11 12:30N 29°44' E 122°40'7 6.0
2014-Oct-11 11:23N 29°40' E 122°34'5 5.7
2014-Oct-11 10:31N 29°40' E 122°28'1010.3
2014-Oct-11 09:33N 29°45' E 122°18'1313.5
2014-Oct-11 08:33N 29°55' E 122°08'1312.6
2014-Oct-11 07:32N 29°57' E 121°53'1 0.5
2014-Oct-11 05:28N 29°57' E 121°52'0 0.2
2014-Oct-11 02:31N 29°57' E 121°51'1 1.2
2014-Oct-11 01:32N 29°56' E 121°53'0 0.0
2014-Oct-11 00:26N 29°56' E 121°53'0 0.0
2014-Oct-10 23:14N 29°56' E 121°53'0 0.0
2014-Oct-10 22:26N 29°56' E 121°53'0 0.0
2014-Oct-10 21:32N 29°56' E 121°53'0 0.0
2014-Oct-10 20:32N 29°56' E 121°53'0 0.0
2014-Oct-10 19:33N 29°56' E 121°53'0 0.0
2014-Oct-10 17:14N 29°56' E 121°53'0 0.0
2014-Oct-10 16:32N 29°56' E 121°53'0 0.0
2014-Oct-10 12:08N 29°56' E 121°53'0 0.0
2014-Oct-10 11:23N 29°56' E 121°53'0 0.0
2014-Oct-10 10:05N 29°56' E 121°53'0 0.0
2014-Oct-10 09:23N 29°56' E 121°53'0 0.0
2014-Oct-10 05:14N 29°56' E 121°53'0 0.1
2014-Oct-10 04:33N 29°56' E 121°53'5 5.0
2014-Oct-10 03:33N 29°58' E 121°58'1010.0
2014-Oct-10 02:33N 29°55' E 122°09'1110.9
2014-Oct-10 01:33N 29°47' E 122°16'5 4.8
2014-Oct-10 00:33N 29°45' E 122°21'6 6.1
2014-Oct-09 23:33N 29°42' E 122°28'5 4.8
2014-Oct-09 22:26N 29°37' E 122°30'1 0.6
2014-Oct-09 21:23N 29°38' E 122°30'0 0.2
2014-Oct-09 20:33N 29°38' E 122°30'0 0.1
2014-Oct-09 19:31N 29°38' E 122°30'0 0.1
2014-Oct-09 18:31N 29°38' E 122°30'0 0.1
2014-Oct-09 17:31N 29°38' E 122°30'1 0.6
2014-Oct-09 16:31N 29°38' E 122°31'5 5.2
2014-Oct-09 15:31N 29°37' E 122°37'20 9.1
2014-Oct-09 13:18N 29°17' E 122°35'  
Track history (hours):
 
Tides and Currents Weather Stations Pressure Air Temp Water Temp Dewpoint Dewpoint Depression Visibility Wind Speed Wind Dir Waves Ship Positions

MV Nord Discovery

Last reported at 2014-Oct-17 01:09 UTC. Time now 2014-Oct-21 20:05 UTC.
Position N 30°60' E 122°45'.

Length 183 m; draft 6.6 m.

Type: Cargo ship. MMSI: 354855000.

Date/timePositionNaut miles runAvg speedWind from/ knotsBaromVisibWave heightAir tempDewpointWater temp
2014-Oct-17 01:09N 30°60' E 122°45'812.3
2014-Oct-17 00:31N 30°59' E 122°36'1313.4
2014-Oct-16 23:33N 31°01' E 122°21'2811.8
2014-Oct-16 21:10N 31°11' E 121°50'813.2
2014-Oct-16 20:32N 31°17' E 121°44'1211.6
2014-Oct-16 19:33N 31°24' E 121°33'10 9.5
2014-Oct-16 18:33N 31°30' E 121°24'1312.7
2014-Oct-16 17:33N 31°39' E 121°14'1414.1
2014-Oct-16 16:32N 31°47' E 120°60'1111.7
2014-Oct-16 15:34N 31°56' E 120°52'1212.1
2014-Oct-16 14:34N 31°60' E 120°38'1111.2
2014-Oct-16 13:33N 32°03' E 120°26'1212.1
2014-Oct-16 12:34N 31°56' E 120°14'1212.1
2014-Oct-16 11:33N 31°58' E 120°00'0 0.2
2014-Oct-16 10:32N 31°58' E 120°00'0 0.0
2014-Oct-16 09:32N 31°58' E 120°00'0 0.0
2014-Oct-16 08:32N 31°58' E 120°00'0 0.0
2014-Oct-16 07:32N 31°58' E 120°00'0 0.0
2014-Oct-16 06:29N 31°58' E 120°00'0 0.0
2014-Oct-16 05:32N 31°58' E 120°00'0 0.0
2014-Oct-16 04:32N 31°58' E 120°00'0 0.0
2014-Oct-16 03:29N 31°58' E 120°00'0 0.0
2014-Oct-16 02:32N 31°58' E 120°00'0 0.0
2014-Oct-16 01:29N 31°58' E 120°00'0 0.0
2014-Oct-16 00:29N 31°58' E 120°00'0 0.0
2014-Oct-15 23:29N 31°58' E 120°00'0 0.0
2014-Oct-15 22:32N 31°58' E 120°00'0 0.0
2014-Oct-15 21:32N 31°58' E 120°00'0 0.0
2014-Oct-15 20:26N 31°58' E 120°00'0 0.0
2014-Oct-15 19:32N 31°58' E 120°00'0 0.0
2014-Oct-15 18:29N 31°58' E 120°00'0 0.0
2014-Oct-15 17:29N 31°58' E 120°00'0 0.0
2014-Oct-15 16:32N 31°58' E 120°00'0 0.0
2014-Oct-15 15:23N 31°58' E 120°00'0 0.1
2014-Oct-15 14:29N 31°58' E 120°00'0 0.0
2014-Oct-15 13:32N 31°58' E 120°00'0 0.0
2014-Oct-15 12:32N 31°58' E 120°00'0 0.0
2014-Oct-15 11:32N 31°58' E 120°00'0 0.0
2014-Oct-15 10:32N 31°58' E 120°00'0 0.0
2014-Oct-15 09:26N 31°58' E 120°00'0 0.0
2014-Oct-15 08:32N 31°58' E 120°00'0 0.0
2014-Oct-15 07:20N 31°58' E 120°00'0 0.0
2014-Oct-15 06:32N 31°58' E 120°00'0 0.0
2014-Oct-15 05:32N 31°58' E 120°00'0 0.0
2014-Oct-15 04:29N 31°58' E 120°00'0 0.0
2014-Oct-15 03:32N 31°58' E 120°00'0 0.2
2014-Oct-15 02:33N 31°58' E 120°00'9 9.3
2014-Oct-15 01:33N 31°56' E 120°11'9 9.4
2014-Oct-15 00:33N 31°58' E 120°22'6 6.0
2014-Oct-14 23:33N 32°02' E 120°27'10 9.8
2014-Oct-14 22:33N 31°60' E 120°38'1110.5
2014-Oct-14 21:33N 31°59' E 120°51'1312.5
2014-Oct-14 20:33N 31°47' E 120°57'1712.4
2014-Oct-14 19:13N 31°39' E 121°14'5 7.8
2014-Oct-14 18:33N 31°36' E 121°19'1 0.1
2014-Oct-14 11:28N 31°35' E 121°19'8 8.6
2014-Oct-14 10:33N 31°30' E 121°26'9 8.7
2014-Oct-14 09:33N 31°24' E 121°33'9 9.2
2014-Oct-14 08:33N 31°20' E 121°43'  
2014-Oct-12 00:05N 30°47' E 123°13'70 6.0
2014-Oct-11 12:30N 29°44' E 122°40'7 6.0
2014-Oct-11 11:23N 29°40' E 122°34'5 5.7
2014-Oct-11 10:31N 29°40' E 122°28'1010.3
2014-Oct-11 09:33N 29°45' E 122°18'1313.5
2014-Oct-11 08:33N 29°55' E 122°08'1312.6
2014-Oct-11 07:32N 29°57' E 121°53'1 0.5
2014-Oct-11 05:28N 29°57' E 121°52'0 0.2
2014-Oct-11 02:31N 29°57' E 121°51'1 1.2
2014-Oct-11 01:32N 29°56' E 121°53'0 0.0
2014-Oct-11 00:26N 29°56' E 121°53'0 0.0
2014-Oct-10 23:14N 29°56' E 121°53'0 0.0
2014-Oct-10 22:26N 29°56' E 121°53'0 0.0
2014-Oct-10 21:32N 29°56' E 121°53'0 0.0
2014-Oct-10 20:32N 29°56' E 121°53'0 0.0
2014-Oct-10 19:33N 29°56' E 121°53'0 0.0
2014-Oct-10 17:14N 29°56' E 121°53'0 0.0
2014-Oct-10 16:32N 29°56' E 121°53'0 0.0
2014-Oct-10 12:08N 29°56' E 121°53'0 0.0
2014-Oct-10 11:23N 29°56' E 121°53'0 0.0
2014-Oct-10 10:05N 29°56' E 121°53'0 0.0
2014-Oct-10 09:23N 29°56' E 121°53'0 0.0
2014-Oct-10 05:14N 29°56' E 121°53'0 0.1
2014-Oct-10 04:33N 29°56' E 121°53'5 5.0
2014-Oct-10 03:33N 29°58' E 121°58'1010.0
2014-Oct-10 02:33N 29°55' E 122°09'1110.9
2014-Oct-10 01:33N 29°47' E 122°16'5 4.8
2014-Oct-10 00:33N 29°45' E 122°21'6 6.1
2014-Oct-09 23:33N 29°42' E 122°28'5 4.8
2014-Oct-09 22:26N 29°37' E 122°30'1 0.6
2014-Oct-09 21:23N 29°38' E 122°30'0 0.2
2014-Oct-09 20:33N 29°38' E 122°30'0 0.1
2014-Oct-09 19:31N 29°38' E 122°30'0 0.1
2014-Oct-09 18:31N 29°38' E 122°30'0 0.1
2014-Oct-09 17:31N 29°38' E 122°30'1 0.6
2014-Oct-09 16:31N 29°38' E 122°31'5 5.2
2014-Oct-09 15:31N 29°37' E 122°37'20 9.1
2014-Oct-09 13:18N 29°17' E 122°35'  

Dump ship's entire track history